createdAt,value
2023-02-05T00:00:14.664Z,5.29
2023-02-05T00:01:14.671Z,5.14
2023-02-05T00:02:14.662Z,5.19
2023-02-05T00:03:14.642Z,5.08
2023-02-05T00:04:14.597Z,5.04
2023-02-05T00:05:14.574Z,4.93
2023-02-05T00:06:14.559Z,4.87
2023-02-05T00:07:14.547Z,4.94
2023-02-05T00:08:14.525Z,5.01
2023-02-05T00:09:14.506Z,4.99
2023-02-05T00:10:14.491Z,5.04
2023-02-05T00:11:14.472Z,5.08
2023-02-05T00:12:14.460Z,5.02
2023-02-05T00:13:14.444Z,5.20
2023-02-05T00:14:14.425Z,5.11
2023-02-05T00:15:14.401Z,5.04
2023-02-05T00:16:14.477Z,5.01
2023-02-05T00:17:14.386Z,4.97
2023-02-05T00:18:14.354Z,4.87
2023-02-05T00:19:14.334Z,4.88
2023-02-05T00:20:14.318Z,5.02
2023-02-05T00:21:14.306Z,4.97
2023-02-05T00:22:14.289Z,4.96
2023-02-05T00:23:14.265Z,4.84
2023-02-05T00:24:14.251Z,4.90
2023-02-05T00:25:14.240Z,4.87
2023-02-05T00:26:14.218Z,4.87
2023-02-05T00:27:14.196Z,4.86
2023-02-05T00:28:14.267Z,4.80
2023-02-05T00:29:14.172Z,4.77
2023-02-05T00:30:14.174Z,4.80
2023-02-05T00:31:14.253Z,4.74
2023-02-05T00:32:14.117Z,4.69
2023-02-05T00:33:14.117Z,4.71
2023-02-05T00:34:14.084Z,4.68
2023-02-05T00:35:14.062Z,4.75
2023-02-05T00:36:14.047Z,4.67
2023-02-05T00:37:14.030Z,4.54
2023-02-05T00:38:14.014Z,4.57
2023-02-05T00:39:14.043Z,4.57
2023-02-05T00:40:13.981Z,4.59
2023-02-05T00:41:13.960Z,4.49
2023-02-05T00:42:13.953Z,4.59
2023-02-05T00:43:13.928Z,4.57
2023-02-05T00:44:13.912Z,4.54
2023-02-05T00:45:13.892Z,4.49
2023-02-05T00:46:13.943Z,4.59
2023-02-05T00:47:13.857Z,4.44
2023-02-05T00:48:13.846Z,4.54
2023-02-05T00:49:13.845Z,4.54
2023-02-05T00:50:13.825Z,4.64
2023-02-05T00:51:13.791Z,4.64
2023-02-05T00:52:13.802Z,4.54
2023-02-05T00:54:13.738Z,4.50
2023-02-05T00:55:13.729Z,4.61
2023-02-05T00:56:13.706Z,4.61
2023-02-05T00:57:13.691Z,4.56
2023-02-05T00:58:13.679Z,4.68
2023-02-05T00:59:13.656Z,4.61
2023-02-05T01:00:13.634Z,4.62
2023-02-05T01:01:13.647Z,4.68
2023-02-05T01:02:13.620Z,4.75
2023-02-05T01:03:13.589Z,4.77
2023-02-05T01:04:13.571Z,4.75
2023-02-05T01:05:13.580Z,4.62
2023-02-05T01:06:13.537Z,4.65
2023-02-05T01:07:13.523Z,4.74
2023-02-05T01:08:13.517Z,4.68
2023-02-05T01:09:13.508Z,4.80
2023-02-05T01:10:13.494Z,4.97
2023-02-05T01:11:13.457Z,4.93
2023-02-05T01:12:13.445Z,4.93
2023-02-05T01:13:13.424Z,5.12
2023-02-05T01:14:13.404Z,4.99
2023-02-05T01:15:13.391Z,5.02
2023-02-05T01:16:13.395Z,5.09
2023-02-05T01:17:13.356Z,5.05
2023-02-05T01:18:13.365Z,5.02
2023-02-05T01:19:13.422Z,5.04
2023-02-05T01:20:13.302Z,5.19
2023-02-05T01:21:13.316Z,5.04
2023-02-05T01:22:13.279Z,5.26
2023-02-05T01:23:13.264Z,5.20
2023-02-05T01:24:13.235Z,5.40
2023-02-05T01:25:13.221Z,5.42
2023-02-05T01:26:13.202Z,5.33
2023-02-05T01:27:13.194Z,5.37
2023-02-05T01:28:13.254Z,5.26
2023-02-05T01:29:13.156Z,5.27
2023-02-05T01:30:13.134Z,5.17
2023-02-05T01:31:13.235Z,5.11
2023-02-05T01:32:13.104Z,5.06
2023-02-05T01:33:13.084Z,5.04
2023-02-05T01:34:13.065Z,4.96
2023-02-05T01:35:13.051Z,4.96
2023-02-05T01:36:13.082Z,4.93
2023-02-05T01:37:13.036Z,4.88
2023-02-05T01:38:13.010Z,4.87
2023-02-05T01:39:12.979Z,4.83
2023-02-05T01:40:12.960Z,4.80
2023-02-05T01:41:12.946Z,4.84
2023-02-05T01:42:12.975Z,4.88
2023-02-05T01:43:12.915Z,4.87
2023-02-05T01:44:12.893Z,4.77
2023-02-05T01:45:12.880Z,4.72
2023-02-05T01:46:12.913Z,4.72
2023-02-05T01:47:12.843Z,4.62
2023-02-05T01:48:12.844Z,4.62
2023-02-05T01:49:12.809Z,4.72
2023-02-05T01:50:12.791Z,4.79
2023-02-05T01:51:12.777Z,4.80
2023-02-05T01:52:12.753Z,4.83
2023-02-05T01:53:12.762Z,4.83
2023-02-05T01:54:12.724Z,4.68
2023-02-05T01:55:12.706Z,4.68
2023-02-05T01:56:12.685Z,4.56
2023-02-05T01:57:12.673Z,4.50
2023-02-05T01:58:12.669Z,4.51
2023-02-05T01:59:12.638Z,4.61
2023-02-05T02:00:12.617Z,4.56
2023-02-05T02:01:12.761Z,4.57
2023-02-05T02:02:12.587Z,4.75
2023-02-05T02:03:12.568Z,4.72
2023-02-05T02:04:12.550Z,4.77
2023-02-05T02:05:12.736Z,4.71
2023-02-05T02:06:12.533Z,4.72
2023-02-05T02:07:12.499Z,4.71
2023-02-05T02:08:12.483Z,4.77
2023-02-05T02:09:12.486Z,4.77
2023-02-05T02:10:12.447Z,4.86
2023-02-05T02:11:12.431Z,4.83
2023-02-05T02:12:12.411Z,4.71
2023-02-05T02:13:12.397Z,4.72
2023-02-05T02:14:12.382Z,4.67
2023-02-05T02:15:12.364Z,4.72
2023-02-05T02:16:12.404Z,4.56
2023-02-05T02:17:12.379Z,4.51
2023-02-05T02:18:12.314Z,4.47
2023-02-05T02:19:12.296Z,4.54
2023-02-05T02:20:12.275Z,4.56
2023-02-05T02:21:12.264Z,4.72
2023-02-05T02:22:12.243Z,4.64
2023-02-05T02:23:12.226Z,4.71
2023-02-05T02:24:12.212Z,4.67
2023-02-05T02:25:12.212Z,4.61
2023-02-05T02:26:12.176Z,4.50
2023-02-05T02:27:12.163Z,4.53
2023-02-05T02:28:12.238Z,4.59
2023-02-05T02:29:12.126Z,4.65
2023-02-05T02:30:12.118Z,4.69
2023-02-05T02:31:12.138Z,4.62
2023-02-05T02:32:12.074Z,4.71
2023-02-05T02:33:12.055Z,4.65
2023-02-05T02:34:12.037Z,4.68
2023-02-05T02:35:12.019Z,4.71
2023-02-05T02:36:12.004Z,4.65
2023-02-05T02:37:11.990Z,4.51
2023-02-05T02:38:11.966Z,4.44
2023-02-05T02:39:11.951Z,4.43
2023-02-05T02:40:11.930Z,4.32
2023-02-05T02:41:11.933Z,4.46
2023-02-05T02:42:11.898Z,4.36
2023-02-05T02:43:11.880Z,4.31
2023-02-05T02:44:11.910Z,4.32
2023-02-05T02:45:11.845Z,4.28
2023-02-05T02:46:11.907Z,4.25
2023-02-05T02:47:11.822Z,4.26
2023-02-05T02:48:11.792Z,4.14
2023-02-05T02:49:11.777Z,4.20
2023-02-05T02:50:11.759Z,4.11
2023-02-05T02:51:11.744Z,4.20
2023-02-05T02:52:11.732Z,4.14
2023-02-05T02:53:11.707Z,4.17
2023-02-05T02:54:11.688Z,4.26
2023-02-05T02:55:11.678Z,4.21
2023-02-05T02:56:11.652Z,4.17
2023-02-05T02:57:11.662Z,4.14
2023-02-05T02:58:11.617Z,4.07
2023-02-05T02:59:11.603Z,4.10
2023-02-05T03:00:11.583Z,4.00
2023-02-05T03:01:11.669Z,3.92
2023-02-05T03:02:11.548Z,3.96
2023-02-05T03:03:11.534Z,3.93
2023-02-05T03:04:11.512Z,3.86
2023-02-05T03:05:11.509Z,3.75
2023-02-05T03:06:11.480Z,3.80
2023-02-05T03:07:11.465Z,3.80
2023-02-05T03:08:11.443Z,3.60
2023-02-05T03:09:11.428Z,3.60
2023-02-05T03:10:11.407Z,3.54
2023-02-05T03:11:11.395Z,3.45
2023-02-05T03:12:11.373Z,3.49
2023-02-05T03:13:11.377Z,3.57
2023-02-05T03:14:11.340Z,3.50
2023-02-05T03:15:11.336Z,3.54
2023-02-05T03:16:11.336Z,3.52
2023-02-05T03:17:11.288Z,3.50
2023-02-05T03:18:11.267Z,3.64
2023-02-05T03:19:11.251Z,3.57
2023-02-05T03:20:11.233Z,3.72
2023-02-05T03:21:11.266Z,3.53
2023-02-05T03:22:11.197Z,3.57
2023-02-05T03:23:11.180Z,3.45
2023-02-05T03:24:11.165Z,3.44
2023-02-05T03:25:11.147Z,3.49
2023-02-05T03:26:11.124Z,3.35
2023-02-05T03:27:11.110Z,3.35
2023-02-05T03:28:11.152Z,3.26
2023-02-05T03:29:11.098Z,3.17
2023-02-05T03:30:11.080Z,3.19
2023-02-05T03:31:11.089Z,3.15
2023-02-05T03:32:11.021Z,3.25
2023-02-05T03:33:11.003Z,3.23
2023-02-05T03:34:10.981Z,3.34
2023-02-05T03:35:10.970Z,3.42
2023-02-05T03:36:10.947Z,3.45
2023-02-05T03:37:10.934Z,3.35
2023-02-05T03:38:10.916Z,3.34
2023-02-05T03:39:10.899Z,3.46
2023-02-05T03:40:10.886Z,3.44
2023-02-05T03:41:10.863Z,3.44
2023-02-05T03:42:10.844Z,3.50
2023-02-05T03:43:10.824Z,3.46
2023-02-05T03:44:10.806Z,3.39
2023-02-05T03:45:10.830Z,3.31
2023-02-05T03:46:10.802Z,3.31
2023-02-05T03:47:10.754Z,3.17
2023-02-05T03:48:10.732Z,3.04
2023-02-05T03:49:10.726Z,3.05
2023-02-05T03:50:10.699Z,3.08
2023-02-05T03:51:10.681Z,3.08
2023-02-05T03:52:10.669Z,3.12
2023-02-05T03:53:10.646Z,3.13
2023-02-05T03:54:10.633Z,3.26
2023-02-05T03:55:10.606Z,3.23
2023-02-05T03:56:10.588Z,3.49
2023-02-05T03:57:10.571Z,3.53
2023-02-05T03:58:10.553Z,3.35
2023-02-05T03:59:10.534Z,3.23
2023-02-05T04:00:10.514Z,3.35
2023-02-05T04:01:10.571Z,3.41
2023-02-05T04:02:10.523Z,3.41
2023-02-05T04:03:10.469Z,3.41
2023-02-05T04:04:10.438Z,3.44
2023-02-05T04:05:10.422Z,3.34
2023-02-05T04:06:10.407Z,3.25
2023-02-05T04:07:10.388Z,3.16
2023-02-05T04:08:10.374Z,3.20
2023-02-05T04:09:10.450Z,3.04
2023-02-05T04:10:10.334Z,3.04
2023-02-05T04:11:10.312Z,2.94
2023-02-05T04:12:10.301Z,3.01
2023-02-05T04:13:11.509Z,3.10
2023-02-05T04:14:10.261Z,2.97
2023-02-05T04:15:10.240Z,3.02
2023-02-05T04:16:10.302Z,3.12
2023-02-05T04:17:10.226Z,3.07
2023-02-05T04:18:10.190Z,3.01
2023-02-05T04:19:10.168Z,3.13
2023-02-05T04:20:10.154Z,3.07
2023-02-05T04:21:10.130Z,2.99
2023-02-05T04:22:10.121Z,2.94
2023-02-05T04:23:10.097Z,2.83
2023-02-05T04:24:10.165Z,2.98
2023-02-05T04:25:10.058Z,2.99
2023-02-05T04:26:10.045Z,3.10
2023-02-05T04:27:10.072Z,3.04
2023-02-05T04:28:10.079Z,2.98
2023-02-05T04:29:10.027Z,3.08
2023-02-05T04:30:09.978Z,3.12
2023-02-05T04:31:09.957Z,3.10
2023-02-05T04:32:09.953Z,3.34
2023-02-05T04:33:09.983Z,3.23
2023-02-05T04:34:09.918Z,3.23
2023-02-05T04:35:09.885Z,3.26
2023-02-05T04:36:09.871Z,3.23
2023-02-05T04:37:09.852Z,3.01
2023-02-05T04:38:09.836Z,2.86
2023-02-05T04:39:09.904Z,2.80
2023-02-05T04:40:09.797Z,2.86
2023-02-05T04:41:09.779Z,2.79
2023-02-05T04:42:09.771Z,2.71
2023-02-05T04:43:09.741Z,2.87
2023-02-05T04:44:09.732Z,2.95
2023-02-05T04:45:09.709Z,2.87
2023-02-05T04:46:09.750Z,3.02
2023-02-05T04:47:09.670Z,3.05
2023-02-05T04:48:09.654Z,3.20
2023-02-05T04:49:09.657Z,3.28
2023-02-05T04:50:09.619Z,3.12
2023-02-05T04:51:09.606Z,3.23
2023-02-05T04:52:09.614Z,3.15
2023-02-05T04:53:09.567Z,3.08
2023-02-05T04:54:09.548Z,2.98
2023-02-05T04:55:09.524Z,2.90
2023-02-05T04:56:09.533Z,2.76
2023-02-05T04:57:09.489Z,2.73
2023-02-05T04:58:09.477Z,2.79
2023-02-05T04:59:09.452Z,2.80
2023-02-05T05:00:09.438Z,2.87
2023-02-05T05:01:09.421Z,3.04
2023-02-05T05:02:09.442Z,2.83
2023-02-05T05:03:09.381Z,2.87
2023-02-05T05:04:09.367Z,2.80
2023-02-05T05:05:09.368Z,2.71
2023-02-05T05:06:09.347Z,2.63
2023-02-05T05:07:09.308Z,2.61
2023-02-05T05:08:09.295Z,2.50
2023-02-05T05:09:09.273Z,2.37
2023-02-05T05:10:09.264Z,2.44
2023-02-05T05:11:09.237Z,2.32
2023-02-05T05:12:09.227Z,2.41
2023-02-05T05:13:09.198Z,2.43
2023-02-05T05:14:09.185Z,2.37
2023-02-05T05:15:09.181Z,2.38
2023-02-05T05:16:09.207Z,2.36
2023-02-05T05:17:09.126Z,2.44
2023-02-05T05:18:09.113Z,2.48
2023-02-05T05:19:09.092Z,2.45
2023-02-05T05:20:09.076Z,2.41
2023-02-05T05:21:09.078Z,2.48
2023-02-05T05:22:09.038Z,2.51
2023-02-05T05:23:09.018Z,2.53
2023-02-05T05:24:09.009Z,2.62
2023-02-05T05:25:08.982Z,2.50
2023-02-05T05:26:08.970Z,2.43
2023-02-05T05:27:08.944Z,2.47
2023-02-05T05:28:08.986Z,2.32
2023-02-05T05:29:08.908Z,2.27
2023-02-05T05:30:08.955Z,2.19
2023-02-05T05:31:08.954Z,2.18
2023-02-05T05:32:08.910Z,2.27
2023-02-05T05:33:08.834Z,2.14
2023-02-05T05:34:08.822Z,2.12
2023-02-05T05:35:08.812Z,2.18
2023-02-05T05:36:08.788Z,2.09
2023-02-05T05:37:08.790Z,2.33
2023-02-05T05:38:08.748Z,2.29
2023-02-05T05:39:08.724Z,2.19
2023-02-05T05:40:08.714Z,2.25
2023-02-05T05:41:08.690Z,2.27
2023-02-05T05:42:08.674Z,2.12
2023-02-05T05:43:08.652Z,2.14
2023-02-05T05:44:08.639Z,2.19
2023-02-05T05:45:08.622Z,2.25
2023-02-05T05:46:08.670Z,2.19
2023-02-05T05:47:08.580Z,2.12
2023-02-05T05:48:08.564Z,2.36
2023-02-05T05:49:08.562Z,2.37
2023-02-05T05:50:08.539Z,2.32
2023-02-05T05:51:08.506Z,2.32
2023-02-05T05:52:08.492Z,2.29
2023-02-05T05:53:08.493Z,2.44
2023-02-05T05:54:08.454Z,2.50
2023-02-05T05:55:08.437Z,2.53
2023-02-05T05:56:08.417Z,2.65
2023-02-05T05:57:08.395Z,2.59
2023-02-05T05:58:08.389Z,2.63
2023-02-05T05:59:08.355Z,2.53
2023-02-05T06:00:08.341Z,2.47
2023-02-05T06:01:08.320Z,2.36
2023-02-05T06:02:08.329Z,2.25
2023-02-05T06:03:08.282Z,2.43
2023-02-05T06:04:08.269Z,2.40
2023-02-05T06:05:08.249Z,2.40
2023-02-05T06:06:08.233Z,2.23
2023-02-05T06:07:08.206Z,2.56
2023-02-05T06:08:08.195Z,2.40
2023-02-05T06:09:08.193Z,2.33
2023-02-05T06:10:08.170Z,2.40
2023-02-05T06:11:08.144Z,2.29
2023-02-05T06:12:08.948Z,2.33
2023-02-05T06:13:08.108Z,2.30
2023-02-05T06:14:08.083Z,2.38
2023-02-05T06:15:08.060Z,2.30
2023-02-05T06:16:08.071Z,2.20
2023-02-05T06:17:08.022Z,2.26
2023-02-05T06:18:08.011Z,2.12
2023-02-05T06:19:07.986Z,2.32
2023-02-05T06:20:07.985Z,2.55
2023-02-05T06:21:07.950Z,2.45
2023-02-05T06:22:07.933Z,2.40
2023-02-05T06:23:07.910Z,2.50
2023-02-05T06:24:07.898Z,2.62
2023-02-05T06:25:07.901Z,2.59
2023-02-05T06:26:07.881Z,2.50
2023-02-05T06:27:07.837Z,2.41
2023-02-05T06:28:07.867Z,2.32
2023-02-05T06:29:07.803Z,2.26
2023-02-05T06:30:07.785Z,2.18
2023-02-05T06:31:07.885Z,2.15
2023-02-05T06:32:07.770Z,2.09
2023-02-05T06:33:07.731Z,2.11
2023-02-05T06:34:07.717Z,2.02
2023-02-05T06:35:07.693Z,2.04
2023-02-05T06:36:07.735Z,2.11
2023-02-05T06:37:07.653Z,2.02
2023-02-05T06:38:07.639Z,2.01
2023-02-05T06:39:07.617Z,2.11
2023-02-05T06:40:07.601Z,2.09
2023-02-05T06:41:07.665Z,2.15
2023-02-05T06:42:07.566Z,2.05
2023-02-05T06:43:07.552Z,1.93
2023-02-05T06:44:07.528Z,1.93
2023-02-05T06:45:07.507Z,2.01
2023-02-05T06:46:07.517Z,1.92
2023-02-05T06:47:07.468Z,1.98
2023-02-05T06:48:07.466Z,2.09
2023-02-05T06:49:07.433Z,2.15
2023-02-05T06:50:07.421Z,2.04
2023-02-05T06:51:07.396Z,2.02
2023-02-05T06:52:07.380Z,2.11
2023-02-05T06:53:07.366Z,2.09
2023-02-05T06:54:07.345Z,2.12
2023-02-05T06:55:07.321Z,2.12
2023-02-05T06:56:07.306Z,2.22
2023-02-05T06:57:07.314Z,2.22
2023-02-05T06:58:07.270Z,2.18
2023-02-05T06:59:07.246Z,2.18
2023-02-05T07:00:07.236Z,2.11
2023-02-05T07:01:07.213Z,2.08
2023-02-05T07:02:07.200Z,1.90
2023-02-05T07:03:07.177Z,1.92
2023-02-05T07:04:07.159Z,1.83
2023-02-05T07:05:07.160Z,1.77
2023-02-05T07:06:07.124Z,1.75
2023-02-05T07:07:07.100Z,1.72
2023-02-05T07:08:07.086Z,1.85
2023-02-05T07:09:07.066Z,1.89
2023-02-05T07:10:07.090Z,2.02
2023-02-05T07:11:07.030Z,2.04
2023-02-05T07:12:07.037Z,1.86
2023-02-05T07:13:07.020Z,1.89
2023-02-05T07:14:06.979Z,1.83
2023-02-05T07:15:06.959Z,1.92
2023-02-05T07:16:06.999Z,1.75
2023-02-05T07:17:06.920Z,1.88
2023-02-05T07:18:06.913Z,2.00
2023-02-05T07:19:06.883Z,2.01
2023-02-05T07:20:06.872Z,2.01
2023-02-05T07:21:06.852Z,2.07
2023-02-05T07:22:06.831Z,2.14
2023-02-05T07:23:06.810Z,2.01
2023-02-05T07:24:06.804Z,2.02
2023-02-05T07:25:06.783Z,2.01
2023-02-05T07:26:06.761Z,1.98
2023-02-05T07:27:06.737Z,2.09
2023-02-05T07:28:06.808Z,2.14
2023-02-05T07:29:06.732Z,2.08
2023-02-05T07:30:06.685Z,2.09
2023-02-05T07:31:06.771Z,2.15
2023-02-05T07:32:06.675Z,2.19
2023-02-05T07:33:06.627Z,2.12
2023-02-05T07:34:06.613Z,2.23
2023-02-05T07:35:06.590Z,2.15
2023-02-05T07:36:06.574Z,2.25
2023-02-05T07:37:06.553Z,2.25
2023-02-05T07:38:06.536Z,2.22
2023-02-05T07:39:06.514Z,2.43
2023-02-05T07:40:06.501Z,2.40
2023-02-05T07:41:06.478Z,2.53
2023-02-05T07:42:06.464Z,2.63
2023-02-05T07:43:06.441Z,2.48
2023-02-05T07:44:06.473Z,2.61
2023-02-05T07:45:06.431Z,2.56
2023-02-05T07:46:06.389Z,2.45
2023-02-05T07:47:06.374Z,2.50
2023-02-05T07:48:06.350Z,2.45
2023-02-05T07:49:06.331Z,2.41
2023-02-05T07:50:06.319Z,2.40
2023-02-05T07:51:06.297Z,2.51
2023-02-05T07:52:06.278Z,2.77
2023-02-05T07:53:06.254Z,2.89
2023-02-05T07:54:06.243Z,2.86
2023-02-05T07:55:06.220Z,2.79
2023-02-05T07:56:06.202Z,2.81
2023-02-05T07:57:07.083Z,2.68
2023-02-05T07:58:06.166Z,2.66
2023-02-05T07:59:06.143Z,2.80
2023-02-05T08:00:06.131Z,2.81
2023-02-05T08:01:06.282Z,2.86
2023-02-05T08:02:06.093Z,2.90
2023-02-05T08:03:06.072Z,2.86
2023-02-05T08:04:06.118Z,2.80
2023-02-05T08:05:06.035Z,2.73
2023-02-05T08:06:06.020Z,2.79
2023-02-05T08:07:06.015Z,2.66
2023-02-05T08:08:05.986Z,2.84
2023-02-05T08:09:05.963Z,2.98
2023-02-05T08:10:05.950Z,3.04
2023-02-05T08:11:05.940Z,3.15
2023-02-05T08:12:05.912Z,3.20
2023-02-05T08:13:05.889Z,3.34
2023-02-05T08:14:05.880Z,3.60
2023-02-05T08:15:05.856Z,3.62
2023-02-05T08:16:05.956Z,3.62
2023-02-05T08:17:05.837Z,3.75
2023-02-05T08:18:05.803Z,3.74
2023-02-05T08:19:05.784Z,3.74
2023-02-05T08:20:05.768Z,3.70
2023-02-05T08:21:05.749Z,3.62
2023-02-05T08:22:05.732Z,3.64
2023-02-05T08:23:05.713Z,3.57
2023-02-05T08:24:05.693Z,3.64
2023-02-05T08:25:05.680Z,3.71
2023-02-05T08:26:05.656Z,3.78
2023-02-05T08:27:05.643Z,3.78
2023-02-05T08:28:05.716Z,3.84
2023-02-05T08:29:05.612Z,3.92
2023-02-05T08:30:05.596Z,3.98
2023-02-05T08:31:05.646Z,3.95
2023-02-05T08:32:05.566Z,3.98
2023-02-05T08:33:05.559Z,3.99
2023-02-05T08:34:05.583Z,4.00
2023-02-05T08:35:05.499Z,3.99
2023-02-05T08:36:05.484Z,3.96
2023-02-05T08:37:05.468Z,4.13
2023-02-05T08:38:05.448Z,4.29
2023-02-05T08:39:05.431Z,4.31
2023-02-05T08:40:05.409Z,4.29
2023-02-05T08:41:05.400Z,4.34
2023-02-05T08:42:05.380Z,4.74
2023-02-05T08:43:05.361Z,4.72
2023-02-05T08:44:05.338Z,4.79
2023-02-05T08:45:05.326Z,4.83
2023-02-05T08:46:05.313Z,4.93
2023-02-05T08:47:05.290Z,4.93
2023-02-05T08:48:05.271Z,5.15
2023-02-05T08:49:05.275Z,5.47
2023-02-05T08:50:05.240Z,5.56
2023-02-05T08:51:05.221Z,5.55
2023-02-05T08:52:05.201Z,5.74
2023-02-05T08:53:05.191Z,5.92
2023-02-05T08:54:05.168Z,6.05
2023-02-05T08:55:05.152Z,6.10
2023-02-05T08:56:05.132Z,5.96
2023-02-05T08:57:05.118Z,5.93
2023-02-05T08:58:05.098Z,5.99
2023-02-05T08:59:05.083Z,5.90
2023-02-05T09:00:05.063Z,5.70
2023-02-05T09:01:05.151Z,5.75
2023-02-05T09:02:05.033Z,5.58
2023-02-05T09:03:05.021Z,5.62
2023-02-05T09:04:05.076Z,5.47
2023-02-05T09:05:09.395Z,5.41
2023-02-05T09:06:04.960Z,5.17
2023-02-05T09:07:04.946Z,5.19
2023-02-05T09:08:04.925Z,5.08
2023-02-05T09:09:04.914Z,4.96
2023-02-05T09:10:04.892Z,4.88
2023-02-05T09:11:04.881Z,4.93
2023-02-05T09:12:04.858Z,4.87
2023-02-05T09:13:04.844Z,4.97
2023-02-05T09:14:04.823Z,4.97
2023-02-05T09:15:04.811Z,5.26
2023-02-05T09:16:04.790Z,5.20
2023-02-05T09:17:04.779Z,5.23
2023-02-05T09:18:04.757Z,5.22
2023-02-05T09:19:04.754Z,5.26
2023-02-05T09:20:04.726Z,5.19
2023-02-05T09:21:04.730Z,5.14
2023-02-05T09:22:04.692Z,5.04
2023-02-05T09:23:04.683Z,5.06
2023-02-05T09:24:04.656Z,5.08
2023-02-05T09:25:04.644Z,5.01
2023-02-05T09:26:04.625Z,5.05
2023-02-05T09:27:06.589Z,5.06
2023-02-05T09:28:04.789Z,5.01
2023-02-05T09:29:04.576Z,5.11
2023-02-05T09:30:04.562Z,5.08
2023-02-05T09:31:04.703Z,5.06
2023-02-05T09:32:04.525Z,5.26
2023-02-05T09:33:04.557Z,5.29
2023-02-05T09:34:04.497Z,5.41
2023-02-05T09:35:04.478Z,5.47
2023-02-05T09:36:04.457Z,5.52
2023-02-05T09:37:04.463Z,5.45
2023-02-05T09:38:04.423Z,5.51
2023-02-05T09:39:15.970Z,5.40
2023-02-05T09:40:21.484Z,5.33
2023-02-05T09:41:04.376Z,5.41
2023-02-05T09:42:04.357Z,5.38
2023-02-05T09:43:04.347Z,5.40
2023-02-05T09:44:04.328Z,5.32
2023-02-05T09:45:04.307Z,5.30
2023-02-05T09:46:04.383Z,5.32
2023-02-05T09:47:04.273Z,5.23
2023-02-05T09:48:04.253Z,5.12
2023-02-05T09:49:04.241Z,5.14
2023-02-05T09:50:04.227Z,5.45
2023-02-05T09:51:04.216Z,5.41
2023-02-05T09:52:04.208Z,5.66
2023-02-05T09:53:04.194Z,5.85
2023-02-05T09:54:04.152Z,6.02
2023-02-05T09:55:04.156Z,6.06
2023-02-05T09:56:04.127Z,6.14
2023-02-05T09:57:04.114Z,6.24
2023-02-05T09:58:04.092Z,6.40
2023-02-05T09:59:04.075Z,6.39
2023-02-05T10:00:04.058Z,6.63
2023-02-05T10:01:04.087Z,6.60
2023-02-05T10:02:05.811Z,6.72
2023-02-05T10:03:04.008Z,6.68
2023-02-05T10:04:04.029Z,6.72
2023-02-05T10:05:03.968Z,6.81
2023-02-05T10:06:03.959Z,6.78
2023-02-05T10:07:03.934Z,6.72
2023-02-05T10:08:03.917Z,6.75
2023-02-05T10:09:03.927Z,6.69
2023-02-05T10:10:03.881Z,6.73
2023-02-05T10:11:03.868Z,6.61
2023-02-05T10:12:03.847Z,6.58
2023-02-05T10:13:03.837Z,6.63
2023-02-05T10:14:03.815Z,6.48
2023-02-05T10:15:03.807Z,6.53
2023-02-05T10:16:04.016Z,6.48
2023-02-05T10:17:03.769Z,6.53
2023-02-05T10:18:03.759Z,6.75
2023-02-05T10:19:03.736Z,6.64
2023-02-05T10:20:04.140Z,6.69
2023-02-05T10:21:03.702Z,6.83
2023-02-05T10:22:03.686Z,6.90
2023-02-05T10:23:03.671Z,7.01
2023-02-05T10:24:03.650Z,7.11
2023-02-05T10:25:03.662Z,7.11
2023-02-05T10:26:03.622Z,7.18
2023-02-05T10:27:03.607Z,6.87
2023-02-05T10:28:03.609Z,6.83
2023-02-05T10:29:03.586Z,6.89
2023-02-05T10:30:03.564Z,6.79
2023-02-05T10:31:03.725Z,6.71
2023-02-05T10:32:03.536Z,6.82
2023-02-05T10:33:03.525Z,6.65
2023-02-05T10:34:03.496Z,6.78
2023-02-05T10:35:03.487Z,6.91
2023-02-05T10:36:03.463Z,6.89
2023-02-05T10:37:03.452Z,6.69
2023-02-05T10:38:04.720Z,6.71
2023-02-05T10:39:03.418Z,6.71
2023-02-05T10:40:03.395Z,6.61
2023-02-05T10:41:03.406Z,6.69
2023-02-05T10:42:03.412Z,6.57
2023-02-05T10:43:03.349Z,6.45
2023-02-05T10:44:03.328Z,6.46
2023-02-05T10:45:03.317Z,6.43
2023-02-05T10:46:03.326Z,6.48
2023-02-05T10:47:03.282Z,6.61
2023-02-05T10:48:03.264Z,6.53
2023-02-05T10:49:03.258Z,6.48
2023-02-05T10:50:03.236Z,6.46
2023-02-05T10:51:03.221Z,6.48
2023-02-05T10:52:03.197Z,6.40
2023-02-05T10:53:03.190Z,6.28
2023-02-05T10:54:03.164Z,6.33
2023-02-05T10:55:03.152Z,6.27
2023-02-05T10:56:03.182Z,6.27
2023-02-05T10:57:03.141Z,6.24
2023-02-05T10:58:03.113Z,6.19
2023-02-05T10:59:03.085Z,6.17
2023-02-05T11:00:03.136Z,6.20
2023-02-05T11:01:03.053Z,6.25
2023-02-05T11:02:03.061Z,6.32
2023-02-05T11:03:03.067Z,6.28
2023-02-05T11:04:02.999Z,6.32
2023-02-05T11:05:02.993Z,6.30
2023-02-05T11:06:02.970Z,6.36
2023-02-05T11:07:02.956Z,6.32
2023-02-05T11:08:02.944Z,6.36
2023-02-05T11:09:02.923Z,6.39
2023-02-05T11:10:02.904Z,6.36
2023-02-05T11:11:02.889Z,6.33
2023-02-05T11:12:02.870Z,6.39
2023-02-05T11:13:02.882Z,6.48
2023-02-05T11:14:02.842Z,6.50
2023-02-05T11:15:02.827Z,6.43
2023-02-05T11:16:02.858Z,6.51
2023-02-05T11:17:02.795Z,6.57
2023-02-05T11:18:02.776Z,6.54
2023-02-05T11:19:02.757Z,6.53
2023-02-05T11:20:02.739Z,6.58
2023-02-05T11:21:02.729Z,6.65
2023-02-05T11:22:02.710Z,6.73
2023-02-05T11:23:02.694Z,6.91
2023-02-05T11:24:02.676Z,7.07
2023-02-05T11:25:02.664Z,7.16
2023-02-05T11:26:02.643Z,7.23
2023-02-05T11:27:02.679Z,7.26
2023-02-05T11:28:02.703Z,7.15
2023-02-05T11:29:02.620Z,7.21
2023-02-05T11:30:02.579Z,7.23
2023-02-05T11:31:02.609Z,7.41
2023-02-05T11:32:02.790Z,7.27
2023-02-05T11:33:02.534Z,7.47
2023-02-05T11:34:02.514Z,7.48
2023-02-05T11:35:02.523Z,7.42
2023-02-05T11:36:02.484Z,7.39
2023-02-05T11:37:02.473Z,7.48
2023-02-05T11:38:02.449Z,7.39
2023-02-05T11:39:02.439Z,7.37
2023-02-05T11:40:02.418Z,7.47
2023-02-05T11:41:02.406Z,7.42
2023-02-05T11:42:02.390Z,7.21
2023-02-05T11:43:02.390Z,7.21
2023-02-05T11:44:02.362Z,7.15
2023-02-05T11:45:02.580Z,7.07
2023-02-05T11:46:02.337Z,6.93
2023-02-05T11:47:02.331Z,6.96
2023-02-05T11:48:02.292Z,7.00
2023-02-05T11:49:02.278Z,7.14
2023-02-05T11:50:02.272Z,7.23
2023-02-05T11:51:02.252Z,7.36
2023-02-05T11:52:02.234Z,7.26
2023-02-05T11:53:02.216Z,7.33
2023-02-05T11:54:02.214Z,7.36
2023-02-05T11:55:02.188Z,7.34
2023-02-05T11:56:02.170Z,7.36
2023-02-05T11:57:02.158Z,7.36
2023-02-05T11:58:02.136Z,7.36
2023-02-05T11:59:02.121Z,7.37
2023-02-05T12:00:02.108Z,7.29
2023-02-05T12:01:02.115Z,7.23
2023-02-05T12:02:02.107Z,7.23
2023-02-05T12:03:02.094Z,7.11
2023-02-05T12:04:02.042Z,6.99
2023-02-05T12:05:02.036Z,6.83
2023-02-05T12:06:02.018Z,6.87
2023-02-05T12:07:01.999Z,6.93
2023-02-05T12:08:01.983Z,7.00
2023-02-05T12:09:01.969Z,6.94
2023-02-05T12:10:01.950Z,7.00
2023-02-05T12:11:01.938Z,7.07
2023-02-05T12:12:01.920Z,7.05
2023-02-05T12:13:01.903Z,6.99
2023-02-05T12:14:01.891Z,6.96
2023-02-05T12:15:01.870Z,7.07
2023-02-05T12:16:01.894Z,7.01
2023-02-05T12:17:01.858Z,6.97
2023-02-05T12:18:01.822Z,6.86
2023-02-05T12:19:01.807Z,6.93
2023-02-05T12:20:01.798Z,6.94
2023-02-05T12:21:01.778Z,7.04
2023-02-05T12:22:01.757Z,6.93
2023-02-05T12:23:01.753Z,6.89
2023-02-05T12:24:01.728Z,6.86
2023-02-05T12:25:01.719Z,6.90
2023-02-05T12:26:01.697Z,6.82
2023-02-05T12:27:01.681Z,6.94
2023-02-05T12:28:01.690Z,6.94
2023-02-05T12:29:01.651Z,6.96
2023-02-05T12:30:01.641Z,6.91
2023-02-05T12:31:01.615Z,6.93
2023-02-05T12:32:01.619Z,6.82
2023-02-05T12:33:01.610Z,6.86
2023-02-05T12:34:01.574Z,6.93
2023-02-05T12:35:01.590Z,6.71
2023-02-05T12:36:01.533Z,6.73
2023-02-05T12:37:01.529Z,6.71
2023-02-05T12:38:01.549Z,6.65
2023-02-05T12:39:03.234Z,6.60
2023-02-05T12:40:01.486Z,6.35
2023-02-05T12:41:01.453Z,6.33
2023-02-05T12:42:01.439Z,6.46
2023-02-05T12:43:01.469Z,6.46
2023-02-05T12:44:01.405Z,6.43
2023-02-05T12:45:01.386Z,6.48
2023-02-05T12:46:01.426Z,6.57
2023-02-05T12:47:01.354Z,6.54
2023-02-05T12:48:01.348Z,6.57
2023-02-05T12:49:01.347Z,6.64
2023-02-05T12:50:01.318Z,6.75
2023-02-05T12:51:01.288Z,6.73
2023-02-05T12:52:01.277Z,6.73
2023-02-05T12:53:01.257Z,6.71
2023-02-05T12:54:01.244Z,6.78
2023-02-05T12:55:01.226Z,6.83
2023-02-05T12:56:01.211Z,6.90
2023-02-05T12:57:01.192Z,6.94
2023-02-05T12:58:01.189Z,6.90
2023-02-05T12:59:01.165Z,6.76
2023-02-05T13:00:01.146Z,6.71
2023-02-05T13:01:01.153Z,6.94
2023-02-05T13:02:01.121Z,6.91
2023-02-05T13:03:01.096Z,6.89
2023-02-05T13:04:01.585Z,6.94
2023-02-05T13:05:01.091Z,6.87
2023-02-05T13:06:01.055Z,6.94
2023-02-05T13:07:01.038Z,6.83
2023-02-05T13:08:01.022Z,6.89
2023-02-05T13:09:01.012Z,7.04
2023-02-05T13:10:01.527Z,7.08
2023-02-05T13:11:00.971Z,7.19
2023-02-05T13:12:00.972Z,7.16
2023-02-05T13:13:00.963Z,7.26
2023-02-05T13:14:00.950Z,7.30
2023-02-05T13:15:00.908Z,7.26
2023-02-05T13:16:00.898Z,7.42
2023-02-05T13:17:00.878Z,7.44
2023-02-05T13:18:00.868Z,7.41
2023-02-05T13:19:00.849Z,7.55